createdAt,value
2018-05-15T00:01:19.692Z,8.40
2018-05-15T00:03:48.757Z,7.13
2018-05-15T00:06:17.086Z,8.07
2018-05-15T00:08:46.155Z,7.50
2018-05-15T00:11:14.482Z,7.87
2018-05-15T00:13:43.545Z,8.23
2018-05-15T00:16:11.876Z,9.27
2018-05-15T00:18:40.968Z,8.40
2018-05-15T00:21:09.257Z,8.50
2018-05-15T00:23:37.584Z,7.90
2018-05-15T00:26:05.934Z,8.13
2018-05-15T00:28:34.320Z,9.07
2018-05-15T00:31:02.653Z,8.43
2018-05-15T00:33:30.945Z,7.93
2018-05-15T00:35:59.242Z,9.50
2018-05-15T00:38:27.568Z,8.50
2018-05-15T00:40:55.978Z,7.83
2018-05-15T00:43:24.256Z,8.53
2018-05-15T00:45:52.594Z,8.87
2018-05-15T00:48:20.893Z,8.73
2018-05-15T00:50:49.222Z,8.80
2018-05-15T00:53:17.562Z,9.00
2018-05-15T00:55:45.854Z,8.47
2018-05-15T00:58:14.136Z,8.53
2018-05-15T01:00:42.477Z,9.73
2018-05-15T01:03:10.774Z,9.40
2018-05-15T01:05:39.101Z,8.80
2018-05-15T01:08:07.396Z,9.00
2018-05-15T01:10:35.731Z,9.20
2018-05-15T01:13:04.039Z,8.20
2018-05-15T01:15:32.336Z,9.20
2018-05-15T01:18:00.701Z,10.43
2018-05-15T01:20:29.037Z,8.73
2018-05-15T01:22:58.133Z,8.57
2018-05-15T01:25:27.216Z,9.73
2018-05-15T01:27:55.514Z,9.30
2018-05-15T01:30:25.542Z,8.97
2018-05-15T01:32:53.837Z,9.40
2018-05-15T01:35:22.129Z,8.93
2018-05-15T01:37:50.625Z,10.07
2018-05-15T01:40:18.921Z,8.53
2018-05-15T01:42:47.211Z,9.03
2018-05-15T01:45:16.297Z,9.40
2018-05-15T01:47:44.597Z,7.80
2018-05-15T01:50:12.921Z,10.17
2018-05-15T01:52:41.572Z,8.93
2018-05-15T01:55:09.874Z,10.90
2018-05-15T01:57:38.177Z,10.00
2018-05-15T02:00:08.085Z,9.37
2018-05-15T02:02:36.385Z,10.43
2018-05-15T02:05:05.461Z,10.60
2018-05-15T02:07:34.180Z,10.03
2018-05-15T02:10:02.478Z,9.60
2018-05-15T02:12:30.774Z,9.83
2018-05-15T02:15:00.169Z,9.27
2018-05-15T02:17:28.460Z,9.20
2018-05-15T02:19:56.853Z,9.57
2018-05-15T02:22:25.190Z,9.50
2018-05-15T02:24:53.529Z,9.40
2018-05-15T02:27:21.865Z,10.53
2018-05-15T02:29:50.222Z,10.90
2018-05-15T02:32:19.334Z,11.50
2018-05-15T02:34:47.673Z,10.93
2018-05-15T02:37:16.018Z,10.23
2018-05-15T02:39:45.076Z,10.57
2018-05-15T02:42:13.415Z,10.17
2018-05-15T02:44:42.486Z,9.50
2018-05-15T02:47:10.786Z,10.00
2018-05-15T02:49:39.133Z,10.23
2018-05-15T02:52:07.439Z,9.40
2018-05-15T02:54:35.741Z,10.77
2018-05-15T02:57:04.061Z,9.80
2018-05-15T02:59:32.368Z,10.20
2018-05-15T03:02:01.465Z,10.73
2018-05-15T03:04:30.537Z,11.03
2018-05-15T03:06:58.864Z,13.20
2018-05-15T03:09:27.933Z,11.20
2018-05-15T03:11:56.285Z,11.73
2018-05-15T03:14:24.622Z,11.40
2018-05-15T03:16:52.921Z,11.23
2018-05-15T03:19:21.221Z,10.80
2018-05-15T03:21:49.922Z,10.30
2018-05-15T03:24:18.229Z,10.10
2018-05-15T03:26:47.302Z,10.50
2018-05-15T03:29:15.638Z,10.77
2018-05-15T03:31:43.933Z,10.97
2018-05-15T03:34:12.273Z,10.53
2018-05-15T03:36:40.577Z,11.07
2018-05-15T03:39:08.928Z,12.17
2018-05-15T03:41:37.358Z,11.07
2018-05-15T03:44:05.688Z,10.60
2018-05-15T03:46:34.244Z,11.30
2018-05-15T03:49:02.638Z,11.80
2018-05-15T03:51:30.934Z,11.53
2018-05-15T03:54:00.228Z,10.17
2018-05-15T03:56:28.532Z,10.60
2018-05-15T03:58:56.853Z,11.27
2018-05-15T04:01:37.367Z,12.60
2018-05-15T04:04:17.596Z,11.20
2018-05-15T04:06:57.915Z,10.27
2018-05-15T04:09:26.259Z,12.30
2018-05-15T04:11:54.548Z,11.67
2018-05-15T04:14:22.890Z,10.07
2018-05-15T04:16:51.198Z,10.90
2018-05-15T04:19:19.578Z,10.43
2018-05-15T04:21:48.667Z,10.60
2018-05-15T04:24:17.393Z,10.10
2018-05-15T04:26:45.702Z,10.77
2018-05-15T04:29:14.762Z,9.47
2018-05-15T04:31:43.090Z,8.63
2018-05-15T04:34:11.412Z,8.03
2018-05-15T04:36:39.697Z,9.43
2018-05-15T04:39:08.031Z,9.00
2018-05-15T04:41:36.354Z,10.10
2018-05-15T04:44:05.401Z,8.67
2018-05-15T04:46:33.731Z,9.00
2018-05-15T04:49:02.020Z,9.43
2018-05-15T04:51:30.308Z,9.70
2018-05-15T04:53:58.642Z,9.77
2018-05-15T04:56:26.965Z,9.50
2018-05-15T04:58:55.292Z,9.90
2018-05-15T05:01:23.590Z,10.90
2018-05-15T05:03:52.694Z,10.73
2018-05-15T05:06:21.789Z,9.30
2018-05-15T05:08:50.077Z,10.43
2018-05-15T05:11:18.416Z,11.33
2018-05-15T05:13:47.056Z,8.67
2018-05-15T05:16:15.352Z,9.43
2018-05-15T05:18:43.650Z,10.00
2018-05-15T05:21:12.788Z,10.73
2018-05-15T05:23:41.123Z,10.77
2018-05-15T05:26:09.422Z,9.17
2018-05-15T05:28:37.722Z,10.00
2018-05-15T05:31:06.049Z,10.23
2018-05-15T05:33:34.369Z,8.93
2018-05-15T05:36:02.997Z,10.07
2018-05-15T05:38:31.294Z,9.50
2018-05-15T05:40:59.586Z,9.93
2018-05-15T05:46:02.605Z,9.00
2018-05-15T05:48:31.016Z,8.90
2018-05-15T05:51:00.081Z,9.50
2018-05-15T05:53:28.369Z,9.97
2018-05-15T05:55:56.693Z,9.27
2018-05-15T05:58:25.022Z,8.70
2018-05-15T06:00:53.322Z,9.23
2018-05-15T06:03:21.653Z,8.37
2018-05-15T06:05:49.977Z,8.33
2018-05-15T06:08:18.274Z,9.67
2018-05-15T06:10:46.618Z,9.87
2018-05-15T06:13:15.033Z,9.23
2018-05-15T06:15:44.085Z,9.50
2018-05-15T06:18:12.374Z,8.70
2018-05-15T06:20:40.737Z,7.07
2018-05-15T06:23:08.997Z,7.20
2018-05-15T06:25:37.326Z,9.13
2018-05-15T06:28:05.619Z,7.77
2018-05-15T06:30:33.906Z,7.63
2018-05-15T06:33:02.234Z,8.87
2018-05-15T06:35:30.703Z,8.13
2018-05-15T06:37:58.989Z,7.70
2018-05-15T06:40:27.285Z,8.17
2018-05-15T06:42:55.687Z,8.60
2018-05-15T06:45:24.012Z,9.20
2018-05-15T06:47:52.336Z,7.87
2018-05-15T06:50:20.628Z,8.20
2018-05-15T06:52:49.277Z,7.30
2018-05-15T06:55:17.561Z,8.70
2018-05-15T06:57:45.852Z,8.07
2018-05-15T07:00:14.189Z,8.00
2018-05-15T07:02:42.485Z,7.80
2018-05-15T07:05:10.773Z,8.40
2018-05-15T07:07:39.117Z,7.70
2018-05-15T07:10:07.506Z,7.30
2018-05-15T07:12:35.794Z,8.30
2018-05-15T07:15:04.085Z,9.67
2018-05-15T07:17:32.413Z,8.50
2018-05-15T07:20:00.731Z,7.47
2018-05-15T07:22:29.053Z,8.33
2018-05-15T07:24:58.844Z,7.87
2018-05-15T07:27:27.233Z,8.20
2018-05-15T07:29:56.283Z,9.00
2018-05-15T07:32:24.573Z,9.73
2018-05-15T07:34:52.861Z,8.67
2018-05-15T07:37:21.190Z,8.20
2018-05-15T07:39:49.472Z,7.90
2018-05-15T07:42:17.797Z,8.70
2018-05-15T07:44:46.127Z,7.40
2018-05-15T07:47:14.409Z,7.70
2018-05-15T07:49:44.237Z,9.20
2018-05-15T07:52:12.560Z,7.50
2018-05-15T07:54:40.845Z,7.23
2018-05-15T07:57:09.898Z,8.43
2018-05-15T07:59:38.223Z,8.27
2018-05-15T08:02:07.330Z,7.97
2018-05-15T08:04:35.613Z,8.50
2018-05-15T08:07:03.910Z,7.70
2018-05-15T08:09:32.999Z,7.90
2018-05-15T08:12:02.109Z,8.83
2018-05-15T08:14:30.730Z,7.67
2018-05-15T08:16:59.786Z,7.97
2018-05-15T08:19:28.121Z,7.63
2018-05-15T08:21:56.417Z,7.10
2018-05-15T08:24:25.533Z,6.90
2018-05-15T08:26:53.990Z,7.20
2018-05-15T08:29:22.381Z,6.90
2018-05-15T08:31:50.672Z,6.70
2018-05-15T08:34:19.289Z,6.73
2018-05-15T08:36:48.346Z,7.23
2018-05-15T08:39:16.637Z,7.40
2018-05-15T08:41:44.958Z,6.43
2018-05-15T08:44:13.362Z,6.10
2018-05-15T08:46:41.649Z,7.40
2018-05-15T08:49:09.937Z,6.10
2018-05-15T08:51:38.409Z,5.43
2018-05-15T08:54:06.669Z,7.80
2018-05-15T08:56:34.952Z,5.23
2018-05-15T08:59:03.589Z,6.60
2018-05-15T09:01:31.882Z,6.63
2018-05-15T09:04:00.169Z,6.87
2018-05-15T09:06:28.561Z,7.10
2018-05-15T09:08:56.845Z,6.47
2018-05-15T09:11:26.673Z,6.83
2018-05-15T09:13:54.962Z,6.17
2018-05-15T09:16:23.292Z,5.90
2018-05-15T09:18:52.344Z,6.20
2018-05-15T09:21:20.619Z,6.37
2018-05-15T09:23:48.958Z,6.50
2018-05-15T09:26:17.241Z,6.00
2018-05-15T09:28:45.537Z,6.60
2018-05-15T09:31:13.873Z,6.13
2018-05-15T09:33:42.164Z,6.30
2018-05-15T09:36:10.461Z,5.00
2018-05-15T09:38:38.877Z,4.73
2018-05-15T09:41:07.174Z,7.73
2018-05-15T09:43:53.685Z,5.40
2018-05-15T09:46:22.176Z,5.60
2018-05-15T09:48:50.464Z,5.47
2018-05-15T09:51:18.761Z,4.53
2018-05-15T09:53:47.081Z,5.10
2018-05-15T09:56:15.375Z,5.67
2018-05-15T09:58:43.656Z,6.07
2018-05-15T10:01:12.748Z,5.80
2018-05-15T10:03:41.942Z,5.53
2018-05-15T10:06:10.233Z,6.67
2018-05-15T10:08:38.556Z,5.37
2018-05-15T10:11:06.884Z,6.10
2018-05-15T10:13:35.197Z,5.33
2018-05-15T10:16:03.483Z,5.17
2018-05-15T10:18:32.080Z,5.23
2018-05-15T10:21:00.374Z,5.80
2018-05-15T10:23:28.658Z,5.93
2018-05-15T10:25:56.977Z,5.20
2018-05-15T10:28:26.026Z,4.97
2018-05-15T10:30:56.254Z,6.13
2018-05-15T10:33:24.542Z,5.40
2018-05-15T10:35:52.882Z,6.80
2018-05-15T10:38:21.206Z,5.50
2018-05-15T10:40:49.529Z,6.20
2018-05-15T10:43:17.817Z,7.17
2018-05-15T10:45:46.109Z,5.60
2018-05-15T10:48:14.618Z,6.20
2018-05-15T10:50:42.967Z,5.90
2018-05-15T10:53:11.208Z,6.33
2018-05-15T10:55:39.802Z,6.13
2018-05-15T10:58:08.089Z,5.87
2018-05-15T11:00:36.383Z,6.53
2018-05-15T11:03:04.705Z,5.53
2018-05-15T11:05:33.362Z,5.50
2018-05-15T11:08:01.640Z,6.03
2018-05-15T11:10:29.929Z,6.53
2018-05-15T11:12:58.252Z,5.73
2018-05-15T11:15:27.306Z,5.97
2018-05-15T11:17:55.838Z,6.10
2018-05-15T11:20:36.178Z,6.53
2018-05-15T11:23:16.386Z,6.83
2018-05-15T11:25:44.692Z,6.33
2018-05-15T11:28:13.745Z,5.77
2018-05-15T11:30:42.069Z,5.70
2018-05-15T11:33:10.350Z,6.27
2018-05-15T11:35:38.815Z,6.37
2018-05-15T11:38:07.138Z,6.37
2018-05-15T11:40:35.463Z,6.23
2018-05-15T11:43:03.748Z,6.53
2018-05-15T11:45:32.799Z,5.43
2018-05-15T11:48:01.208Z,5.87
2018-05-15T11:50:30.883Z,6.77
2018-05-15T11:52:59.279Z,6.03
2018-05-15T11:55:26.813Z,6.10
2018-05-15T11:57:55.921Z,6.53
2018-05-15T12:00:25.828Z,6.37
2018-05-15T12:02:54.145Z,6.37
2018-05-15T12:05:23.642Z,6.00
2018-05-15T12:07:52.748Z,5.53
2018-05-15T12:10:21.037Z,4.87
2018-05-15T12:12:49.431Z,5.00
2018-05-15T12:15:17.688Z,5.10
2018-05-15T12:17:46.008Z,4.83
2018-05-15T12:20:14.293Z,5.00
2018-05-15T12:22:42.613Z,4.30
2018-05-15T12:25:11.661Z,4.40
2018-05-15T12:27:39.981Z,4.50
2018-05-15T12:30:08.477Z,4.67
2018-05-15T12:32:37.538Z,5.50
2018-05-15T12:35:05.949Z,4.83
2018-05-15T12:37:34.274Z,5.70
2018-05-15T12:40:02.650Z,4.60
2018-05-15T12:42:30.937Z,5.40
2018-05-15T12:44:59.257Z,5.63
2018-05-15T12:47:28.338Z,4.80
2018-05-15T12:49:56.629Z,4.70
2018-05-15T12:52:25.022Z,5.03
2018-05-15T12:54:53.312Z,4.80
2018-05-15T12:57:23.133Z,4.37
2018-05-15T12:59:51.498Z,4.37
2018-05-15T13:02:19.815Z,4.40
2018-05-15T13:04:48.132Z,4.67
2018-05-15T13:07:17.186Z,5.87
2018-05-15T13:09:45.512Z,5.03
2018-05-15T13:12:13.797Z,5.27
2018-05-15T13:14:42.077Z,5.20
2018-05-15T13:17:11.156Z,5.57
2018-05-15T13:19:39.449Z,4.60
2018-05-15T13:22:07.767Z,5.67
2018-05-15T13:24:36.108Z,5.57
2018-05-15T13:27:04.434Z,5.50
2018-05-15T13:29:32.727Z,5.10
2018-05-15T13:32:01.011Z,5.43
2018-05-15T13:34:29.327Z,5.70
2018-05-15T13:36:57.613Z,6.30
2018-05-15T13:39:25.939Z,5.60
2018-05-15T13:41:54.225Z,6.03
2018-05-15T13:44:22.554Z,5.97
2018-05-15T13:46:50.865Z,6.00
2018-05-15T13:49:19.346Z,5.50
2018-05-15T13:51:47.638Z,5.90
2018-05-15T13:54:15.933Z,6.60
2018-05-15T13:56:44.258Z,6.37
2018-05-15T13:59:13.312Z,5.87
2018-05-15T14:01:41.851Z,5.90
2018-05-15T14:04:10.980Z,6.37
2018-05-15T14:06:39.336Z,6.50
2018-05-15T14:09:07.624Z,6.40
2018-05-15T14:11:35.900Z,7.13
2018-05-15T14:14:04.226Z,7.93
2018-05-15T14:16:32.545Z,8.30
2018-05-15T14:19:00.870Z,7.90
2018-05-15T14:21:29.166Z,7.57
2018-05-15T14:23:57.494Z,8.60
2018-05-15T14:26:25.826Z,8.33
2018-05-15T14:28:54.134Z,7.57
2018-05-15T14:31:22.488Z,8.57
2018-05-15T14:33:51.828Z,8.03
2018-05-15T14:36:20.117Z,9.07
2018-05-15T14:38:48.410Z,8.20
2018-05-15T14:41:17.677Z,8.20
2018-05-15T14:43:46.051Z,8.57
2018-05-15T14:46:15.127Z,8.87
2018-05-15T14:48:43.418Z,8.70
2018-05-15T14:51:27.932Z,9.30
2018-05-15T14:53:56.426Z,9.40
2018-05-15T14:56:24.739Z,9.80
2018-05-15T14:58:53.066Z,8.70
2018-05-15T15:01:21.398Z,10.13
2018-05-15T15:03:49.694Z,10.70
2018-05-15T15:06:18.025Z,8.17
2018-05-15T15:08:46.325Z,9.90
2018-05-15T15:11:14.648Z,9.17
2018-05-15T15:13:42.997Z,10.20
2018-05-15T15:16:11.339Z,9.10
2018-05-15T15:18:39.986Z,10.00
2018-05-15T15:21:08.298Z,7.77
2018-05-15T15:23:37.459Z,7.70
2018-05-15T15:26:05.723Z,7.13
2018-05-15T15:28:34.014Z,7.40
2018-05-15T15:31:02.336Z,5.70
2018-05-15T15:33:30.662Z,5.90
2018-05-15T15:35:59.717Z,6.20
2018-05-15T15:38:28.041Z,6.00
2018-05-15T15:40:56.334Z,5.80
2018-05-15T15:43:24.779Z,5.33
2018-05-15T15:45:53.962Z,5.40
2018-05-15T15:48:22.299Z,5.83
2018-05-15T15:50:50.581Z,5.20
2018-05-15T15:53:18.909Z,6.63
2018-05-15T15:55:47.201Z,6.50
2018-05-15T15:58:15.534Z,5.30
2018-05-15T16:00:44.173Z,4.37
2018-05-15T16:03:12.448Z,5.80
2018-05-15T16:05:40.781Z,6.37
2018-05-15T16:08:09.909Z,5.33
2018-05-15T16:10:38.542Z,4.40
2018-05-15T16:13:06.866Z,5.10
2018-05-15T16:15:35.960Z,5.13
2018-05-15T16:18:05.090Z,6.40
2018-05-15T16:20:34.143Z,5.33
2018-05-15T16:23:02.429Z,5.67
2018-05-15T16:25:30.755Z,6.20
2018-05-15T16:27:59.076Z,7.50
2018-05-15T16:30:27.414Z,6.53
2018-05-15T16:32:55.698Z,6.70
2018-05-15T16:35:23.986Z,7.00
2018-05-15T16:37:52.393Z,7.03
2018-05-15T16:40:20.672Z,6.60
2018-05-15T16:42:48.999Z,7.67
2018-05-15T16:45:18.080Z,7.43
2018-05-15T16:47:46.406Z,7.20
2018-05-15T16:50:15.493Z,6.60
2018-05-15T16:52:43.865Z,6.50
2018-05-15T16:55:12.198Z,6.43
2018-05-15T16:57:41.256Z,6.10
2018-05-15T17:00:10.351Z,7.13
2018-05-15T17:02:38.722Z,6.80
2018-05-15T17:05:07.059Z,6.83
2018-05-15T17:07:35.340Z,6.63
2018-05-15T17:10:03.714Z,7.23
2018-05-15T17:12:32.050Z,7.00
2018-05-15T17:15:00.394Z,6.90
2018-05-15T17:17:28.713Z,6.60
2018-05-15T17:19:56.997Z,7.07
2018-05-15T17:22:25.481Z,7.00
2018-05-15T17:24:53.764Z,6.13
2018-05-15T17:27:22.051Z,6.60
2018-05-15T17:29:50.504Z,6.77
2018-05-15T17:32:18.791Z,5.93
2018-05-15T17:34:47.117Z,7.10
2018-05-15T17:37:15.435Z,7.37
2018-05-15T17:39:43.732Z,6.67
2018-05-15T17:42:12.045Z,5.57
2018-05-15T17:44:40.370Z,6.77
2018-05-15T17:47:08.663Z,6.90
2018-05-15T17:49:37.662Z,5.87
2018-05-15T17:52:05.941Z,7.37
2018-05-15T17:54:34.266Z,6.43
2018-05-15T17:57:02.587Z,6.60
2018-05-15T17:59:31.689Z,6.20
2018-05-15T18:01:59.920Z,7.57
2018-05-15T18:04:28.465Z,6.57
2018-05-15T18:06:56.786Z,6.60
2018-05-15T18:09:25.074Z,6.07
2018-05-15T18:11:53.535Z,5.30
2018-05-15T18:14:21.790Z,4.77
2018-05-15T18:16:50.079Z,5.63
2018-05-15T18:19:18.406Z,4.77
2018-05-15T18:21:46.736Z,4.00
2018-05-15T18:24:15.014Z,3.80
2018-05-15T18:26:45.352Z,4.70
2018-05-15T18:29:13.870Z,3.80
2018-05-15T18:31:42.965Z,4.40
2018-05-15T18:34:11.265Z,4.10
2018-05-15T18:36:39.600Z,4.00
2018-05-15T18:39:07.987Z,4.10
2018-05-15T18:41:36.226Z,4.80
2018-05-15T18:44:04.763Z,4.70
2018-05-15T18:46:33.051Z,5.07
2018-05-15T18:49:01.433Z,6.10
2018-05-15T18:51:29.762Z,4.30
2018-05-15T18:53:58.824Z,5.00
2018-05-15T18:56:27.146Z,6.07
2018-05-15T18:58:56.243Z,5.63
2018-05-15T19:01:24.533Z,5.93
2018-05-15T19:03:53.605Z,5.77
2018-05-15T19:06:21.930Z,4.83
2018-05-15T19:08:50.220Z,7.00
2018-05-15T19:11:19.424Z,6.20
2018-05-15T19:13:47.792Z,6.33
2018-05-15T19:16:16.381Z,6.30
2018-05-15T19:18:44.675Z,5.53
2018-05-15T19:21:12.961Z,6.90
2018-05-15T19:23:41.586Z,6.23
2018-05-15T19:26:09.873Z,6.90
2018-05-15T19:28:38.183Z,6.03
2018-05-15T19:31:07.573Z,6.60
2018-05-15T19:33:39.857Z,7.00
2018-05-15T19:36:10.128Z,6.80
2018-05-15T19:38:39.226Z,6.90
2018-05-15T19:41:07.509Z,6.70
2018-05-15T19:43:36.601Z,6.20
2018-05-15T19:46:04.890Z,6.93
2018-05-15T19:48:33.218Z,7.37
2018-05-15T19:51:01.510Z,6.53
2018-05-15T19:53:29.838Z,7.50
2018-05-15T19:55:58.168Z,8.00
2018-05-15T19:58:27.221Z,7.10
2018-05-15T20:00:55.505Z,7.70
2018-05-15T20:03:23.832Z,7.07
2018-05-15T20:05:52.122Z,8.10
2018-05-15T20:08:20.457Z,8.60
2018-05-15T20:10:50.702Z,8.50
2018-05-15T20:13:20.019Z,8.33
2018-05-15T20:15:48.309Z,9.10
2018-05-15T20:18:16.641Z,9.03
2018-05-15T20:20:44.966Z,8.70
2018-05-15T20:23:14.026Z,9.47
2018-05-15T20:25:43.131Z,10.00
2018-05-15T20:28:11.440Z,10.83
2018-05-15T20:30:40.526Z,10.27
2018-05-15T20:33:08.909Z,10.20
2018-05-15T20:35:37.210Z,10.03
2018-05-15T20:38:05.548Z,9.10
2018-05-15T20:40:35.342Z,10.90
2018-05-15T20:43:03.649Z,11.00
2018-05-15T20:45:32.012Z,9.70
2018-05-15T20:48:00.300Z,11.87
2018-05-15T20:50:28.599Z,11.37
2018-05-15T20:52:56.942Z,12.07
2018-05-15T20:55:25.240Z,12.30
2018-05-15T20:57:53.530Z,10.57
2018-05-15T21:00:22.181Z,10.70
2018-05-15T21:02:50.750Z,11.27
2018-05-15T21:05:19.051Z,10.90
2018-05-15T21:07:47.642Z,12.40
2018-05-15T21:10:15.949Z,12.27
2018-05-15T21:12:44.341Z,11.03
2018-05-15T21:15:12.690Z,12.03
2018-05-15T21:17:40.998Z,11.80
2018-05-15T21:20:09.325Z,13.53
2018-05-15T21:22:37.622Z,13.03
2018-05-15T21:25:06.742Z,14.20
2018-05-15T21:27:35.037Z,12.80
2018-05-15T21:30:03.368Z,12.23
2018-05-15T21:32:31.698Z,14.17
2018-05-15T21:35:00.803Z,16.00
2018-05-15T21:37:29.135Z,13.83
2018-05-15T21:39:57.436Z,14.53
2018-05-15T21:42:25.755Z,12.83
2018-05-15T21:44:54.131Z,15.37
2018-05-15T21:47:22.513Z,17.00
2018-05-15T21:49:50.899Z,15.87
2018-05-15T21:52:19.190Z,14.83
2018-05-15T21:54:47.491Z,18.40
2018-05-15T21:57:15.970Z,15.63
2018-05-15T21:59:44.264Z,18.00
2018-05-15T22:02:12.581Z,17.70
2018-05-15T22:04:40.927Z,17.40
2018-05-15T22:07:09.226Z,18.83
2018-05-15T22:09:37.558Z,19.63
2018-05-15T22:12:17.841Z,20.00
2018-05-15T22:15:04.065Z,18.80
2018-05-15T22:17:50.916Z,17.77
2018-05-15T22:20:37.976Z,17.97
2018-05-15T22:23:11.656Z,21.43
2018-05-15T22:25:40.517Z,21.47
2018-05-15T22:28:09.590Z,23.80
2018-05-15T22:30:37.886Z,25.37
2018-05-15T22:33:06.224Z,27.27
2018-05-15T22:35:34.516Z,27.40
2018-05-15T22:38:02.871Z,28.47
2018-05-15T22:40:31.169Z,28.70
2018-05-15T22:42:59.501Z,28.83
2018-05-15T22:45:27.796Z,28.73
2018-05-15T22:47:56.134Z,30.17
2018-05-15T22:50:24.428Z,32.93
2018-05-15T22:52:52.725Z,34.03
2018-05-15T22:55:21.825Z,32.23
2018-05-15T22:57:50.116Z,31.63
2018-05-15T23:00:18.600Z,32.17
2018-05-15T23:02:46.905Z,33.53
2018-05-15T23:05:15.214Z,34.23
2018-05-15T23:07:44.309Z,31.90
2018-05-15T23:10:13.373Z,31.47
2018-05-15T23:12:41.677Z,35.67
2018-05-15T23:15:10.014Z,33.23
2018-05-15T23:17:38.308Z,32.87
2018-05-15T23:20:06.637Z,29.70
2018-05-15T23:22:41.914Z,32.80
2018-05-15T23:25:11.838Z,31.37
2018-05-15T23:27:41.654Z,34.47
2018-05-15T23:30:09.958Z,32.33
2018-05-15T23:32:38.289Z,32.37
2018-05-15T23:35:06.623Z,31.00
2018-05-15T23:37:34.957Z,30.67
2018-05-15T23:40:03.295Z,28.83
2018-05-15T23:42:31.637Z,31.40
2018-05-15T23:44:59.938Z,30.17
2018-05-15T23:47:28.256Z,30.77
2018-05-15T23:49:56.764Z,31.40
2018-05-15T23:52:25.070Z,31.50
2018-05-15T23:54:53.366Z,31.37
2018-05-15T23:57:21.688Z,30.70
2018-05-15T23:59:49.992Z,33.90
